createdAt,value
2018-12-03T00:01:33.648Z,33.68
2018-12-03T00:04:00.023Z,33.52
2018-12-03T00:06:26.331Z,33.45
2018-12-03T00:08:52.724Z,33.51
2018-12-03T00:11:19.168Z,33.61
2018-12-03T00:13:45.500Z,33.38
2018-12-03T00:16:11.853Z,33.31
2018-12-03T00:18:38.182Z,33.55
2018-12-03T00:21:04.592Z,33.39
2018-12-03T00:23:31.095Z,33.27
2018-12-03T00:25:57.509Z,33.33
2018-12-03T00:28:23.856Z,33.26
2018-12-03T00:30:50.276Z,33.37
2018-12-03T00:33:16.651Z,33.34
2018-12-03T00:35:43.089Z,33.36
2018-12-03T00:38:09.416Z,33.26
2018-12-03T00:40:35.826Z,33.25
2018-12-03T00:43:02.238Z,33.39
2018-12-03T00:45:28.788Z,33.34
2018-12-03T00:47:55.197Z,33.39
2018-12-03T00:50:21.557Z,33.37
2018-12-03T00:52:47.917Z,33.43
2018-12-03T00:55:14.321Z,33.42
2018-12-03T00:57:40.726Z,33.49
2018-12-03T01:00:07.055Z,33.53
2018-12-03T01:02:33.393Z,33.52
2018-12-03T01:04:59.722Z,33.33
2018-12-03T01:07:26.073Z,33.30
2018-12-03T01:09:52.608Z,33.46
2018-12-03T01:12:18.934Z,33.25
2018-12-03T01:14:45.331Z,33.23
2018-12-03T01:17:11.679Z,33.16
2018-12-03T01:19:38.111Z,33.31
2018-12-03T01:22:04.540Z,33.32
2018-12-03T01:24:30.880Z,33.29
2018-12-03T01:26:57.232Z,33.20
2018-12-03T01:29:23.632Z,33.33
2018-12-03T01:31:49.904Z,33.31
2018-12-03T01:34:16.232Z,33.33
2018-12-03T01:36:42.575Z,33.33
2018-12-03T01:39:08.907Z,33.14
2018-12-03T01:41:35.238Z,33.42
2018-12-03T01:44:01.579Z,33.43
2018-12-03T01:46:27.946Z,33.23
2018-12-03T01:48:54.276Z,33.31
2018-12-03T01:51:20.696Z,33.46
2018-12-03T01:53:47.097Z,33.39
2018-12-03T01:56:13.408Z,33.28
2018-12-03T01:58:39.744Z,33.23
2018-12-03T02:01:06.109Z,33.28
2018-12-03T02:03:32.462Z,33.04
2018-12-03T02:05:58.790Z,32.66
2018-12-03T02:08:25.176Z,31.52
2018-12-03T02:10:51.517Z,32.36
2018-12-03T02:13:17.850Z,32.26
2018-12-03T02:15:44.249Z,31.56
2018-12-03T02:18:10.652Z,30.99
2018-12-03T02:20:36.922Z,30.87
2018-12-03T02:23:03.344Z,30.85
2018-12-03T02:25:29.668Z,30.51
2018-12-03T02:27:55.999Z,30.26
2018-12-03T02:30:22.488Z,30.14
2018-12-03T02:32:48.844Z,29.85
2018-12-03T02:35:15.132Z,29.95
2018-12-03T02:37:41.520Z,30.00
2018-12-03T02:40:07.844Z,29.84
2018-12-03T02:42:34.383Z,29.72
2018-12-03T02:45:00.747Z,29.69
2018-12-03T02:47:27.071Z,29.59
2018-12-03T02:49:53.549Z,29.55
2018-12-03T02:52:20.032Z,29.34
2018-12-03T02:54:46.532Z,29.33
2018-12-03T02:57:12.804Z,29.18
2018-12-03T02:59:39.187Z,29.17
2018-12-03T03:02:05.544Z,29.26
2018-12-03T03:04:31.890Z,29.37
2018-12-03T03:06:58.253Z,29.35
2018-12-03T03:09:24.656Z,29.32
2018-12-03T03:11:51.065Z,29.35
2018-12-03T03:14:17.641Z,29.13
2018-12-03T03:16:44.022Z,29.06
2018-12-03T03:19:10.300Z,28.87
2018-12-03T03:21:37.945Z,28.80
2018-12-03T03:24:02.998Z,28.82
2018-12-03T03:26:31.594Z,28.76
2018-12-03T03:28:57.929Z,28.62
2018-12-03T03:31:24.415Z,28.47
2018-12-03T03:33:50.772Z,28.57
2018-12-03T03:36:17.234Z,28.57
2018-12-03T03:38:43.562Z,28.54
2018-12-03T03:41:09.899Z,28.51
2018-12-03T03:43:36.234Z,28.47
2018-12-03T03:46:02.590Z,28.48
2018-12-03T03:48:28.981Z,28.48
2018-12-03T03:50:55.241Z,28.44
2018-12-03T03:53:21.559Z,28.34
2018-12-03T03:55:47.954Z,28.26
2018-12-03T03:58:14.282Z,28.15
2018-12-03T04:00:40.675Z,27.98
2018-12-03T04:03:07.063Z,28.05
2018-12-03T04:05:33.409Z,28.02
2018-12-03T04:07:59.810Z,27.73
2018-12-03T04:10:26.149Z,27.69
2018-12-03T04:12:52.507Z,27.60
2018-12-03T04:15:19.040Z,27.34
2018-12-03T04:17:45.369Z,27.33
2018-12-03T04:20:11.710Z,27.29
2018-12-03T04:22:38.054Z,27.22
2018-12-03T04:25:04.434Z,27.16
2018-12-03T04:27:30.869Z,27.03
2018-12-03T04:29:57.196Z,26.96
2018-12-03T04:32:23.533Z,26.98
2018-12-03T04:34:49.885Z,26.96
2018-12-03T04:37:16.228Z,27.01
2018-12-03T04:39:42.553Z,27.01
2018-12-03T04:42:08.950Z,26.95
2018-12-03T04:44:35.398Z,26.79
2018-12-03T04:47:01.745Z,26.89
2018-12-03T04:49:28.075Z,26.63
2018-12-03T04:51:54.441Z,27.60
2018-12-03T04:54:20.780Z,30.95
2018-12-03T04:56:47.112Z,27.92
2018-12-03T04:59:13.484Z,29.64
2018-12-03T05:01:39.782Z,27.93
2018-12-03T05:04:06.113Z,28.47
2018-12-03T05:06:32.512Z,29.66
2018-12-03T05:08:58.841Z,29.60
2018-12-03T05:11:25.171Z,31.17
2018-12-03T05:13:51.499Z,31.28
2018-12-03T05:16:17.832Z,30.00
2018-12-03T05:18:44.162Z,28.34
2018-12-03T05:21:10.494Z,27.99
2018-12-03T05:23:36.829Z,28.02
2018-12-03T05:26:03.175Z,27.79
2018-12-03T05:28:29.546Z,27.50
2018-12-03T05:30:55.903Z,27.72
2018-12-03T05:33:22.236Z,27.73
2018-12-03T05:35:48.571Z,27.70
2018-12-03T05:38:15.020Z,27.13
2018-12-03T05:40:41.391Z,28.46
2018-12-03T05:43:07.773Z,27.96
2018-12-03T05:45:34.131Z,27.89
2018-12-03T05:48:00.504Z,28.77
2018-12-03T05:50:26.886Z,27.82
2018-12-03T05:52:53.237Z,27.27
2018-12-03T05:55:19.584Z,27.18
2018-12-03T05:57:45.917Z,27.74
2018-12-03T06:00:12.379Z,27.60
2018-12-03T06:02:38.718Z,28.18
2018-12-03T06:05:05.046Z,27.79
2018-12-03T06:07:31.375Z,28.05
2018-12-03T06:09:57.708Z,27.41
2018-12-03T06:12:24.043Z,27.50
2018-12-03T06:14:50.416Z,27.02
2018-12-03T06:17:16.750Z,27.15
2018-12-03T06:19:43.085Z,27.39
2018-12-03T06:22:09.417Z,27.47
2018-12-03T06:24:35.785Z,27.24
2018-12-03T06:27:02.117Z,26.99
2018-12-03T06:29:28.478Z,27.22
2018-12-03T06:31:54.853Z,27.18
2018-12-03T06:34:21.195Z,27.65
2018-12-03T06:36:47.742Z,27.40
2018-12-03T06:39:14.229Z,27.78
2018-12-03T06:41:40.515Z,27.38
2018-12-03T06:44:06.846Z,27.28
2018-12-03T06:46:33.178Z,27.13
2018-12-03T06:48:59.599Z,27.55
2018-12-03T06:51:26.013Z,26.91
2018-12-03T06:53:52.361Z,27.14
2018-12-03T06:56:18.692Z,27.08
2018-12-03T06:58:45.022Z,26.94
2018-12-03T07:01:11.372Z,26.56
2018-12-03T07:03:37.762Z,26.97
2018-12-03T07:06:04.221Z,26.91
2018-12-03T07:08:30.566Z,27.10
2018-12-03T07:10:56.932Z,26.99
2018-12-03T07:13:23.305Z,27.12
2018-12-03T07:15:49.700Z,26.37
2018-12-03T07:18:16.026Z,26.72
2018-12-03T07:20:42.400Z,25.56
2018-12-03T07:23:08.828Z,26.67
2018-12-03T07:25:35.266Z,26.28
2018-12-03T07:28:01.591Z,25.15
2018-12-03T07:30:27.987Z,25.74
2018-12-03T07:32:54.320Z,26.26
2018-12-03T07:35:21.118Z,25.31
2018-12-03T07:37:48.566Z,25.81
2018-12-03T07:40:14.897Z,27.00
2018-12-03T07:42:41.286Z,26.73
2018-12-03T07:45:07.611Z,26.30
2018-12-03T07:47:33.959Z,25.57
2018-12-03T07:50:00.330Z,26.04
2018-12-03T07:52:26.669Z,26.16
2018-12-03T07:54:52.998Z,26.53
2018-12-03T07:57:19.495Z,25.85
2018-12-03T07:59:45.816Z,26.14
2018-12-03T08:02:12.168Z,26.26
2018-12-03T08:04:38.519Z,27.09
2018-12-03T08:07:04.859Z,26.41
2018-12-03T08:09:31.240Z,27.12
2018-12-03T08:11:57.582Z,27.08
2018-12-03T08:14:23.914Z,26.96
2018-12-03T08:16:51.354Z,26.17
2018-12-03T08:19:17.678Z,25.51
2018-12-03T08:21:44.013Z,25.62
2018-12-03T08:24:10.348Z,26.59
2018-12-03T08:26:36.722Z,26.64
2018-12-03T08:29:03.089Z,26.79
2018-12-03T08:31:29.432Z,26.82
2018-12-03T08:33:55.828Z,27.13
2018-12-03T08:36:22.189Z,27.32
2018-12-03T08:38:48.512Z,27.08
2018-12-03T08:41:14.945Z,27.30
2018-12-03T08:43:41.355Z,27.21
2018-12-03T08:46:07.738Z,27.36
2018-12-03T08:48:34.049Z,26.99
2018-12-03T08:51:00.454Z,27.03
2018-12-03T08:53:26.812Z,27.07
2018-12-03T08:55:53.152Z,26.69
2018-12-03T08:58:19.549Z,27.53
2018-12-03T09:00:46.874Z,26.74
2018-12-03T09:03:13.342Z,27.13
2018-12-03T09:05:40.717Z,26.69
2018-12-03T09:08:07.143Z,26.79
2018-12-03T09:10:33.583Z,26.47
2018-12-03T09:12:59.987Z,26.14
2018-12-03T09:15:26.373Z,26.62
2018-12-03T09:17:52.757Z,26.76
2018-12-03T09:20:19.195Z,26.29
2018-12-03T09:22:45.518Z,26.33
2018-12-03T09:25:11.856Z,25.50
2018-12-03T09:27:38.241Z,25.86
2018-12-03T09:30:04.747Z,25.55
2018-12-03T09:32:31.251Z,25.99
2018-12-03T09:34:57.609Z,26.34
2018-12-03T09:37:24.005Z,25.88
2018-12-03T09:39:50.401Z,26.41
2018-12-03T09:42:16.781Z,26.07
2018-12-03T09:44:43.246Z,26.15
2018-12-03T09:47:09.623Z,26.31
2018-12-03T09:49:35.975Z,26.43
2018-12-03T09:52:02.269Z,26.27
2018-12-03T09:54:28.618Z,25.96
2018-12-03T09:56:55.060Z,25.94
2018-12-03T09:59:21.427Z,27.09
2018-12-03T10:01:47.803Z,26.31
2018-12-03T10:04:14.131Z,26.56
2018-12-03T10:06:40.501Z,25.90
2018-12-03T10:09:06.838Z,25.99
2018-12-03T10:11:33.166Z,26.23
2018-12-03T10:13:59.498Z,25.94
2018-12-03T10:16:25.941Z,26.04
2018-12-03T10:18:52.277Z,25.55
2018-12-03T10:21:18.654Z,25.49
2018-12-03T10:23:45.040Z,25.50
2018-12-03T10:26:11.437Z,25.93
2018-12-03T10:28:37.763Z,25.85
2018-12-03T10:31:04.128Z,25.74
2018-12-03T10:33:30.542Z,26.19
2018-12-03T10:35:56.915Z,26.08
2018-12-03T10:38:23.299Z,26.40
2018-12-03T10:40:49.746Z,26.15
2018-12-03T10:43:16.080Z,26.19
2018-12-03T10:45:42.492Z,26.04
2018-12-03T10:48:08.823Z,26.12
2018-12-03T10:50:35.213Z,25.83
2018-12-03T10:53:01.588Z,26.45
2018-12-03T10:55:28.279Z,25.68
2018-12-03T10:57:54.675Z,26.76
2018-12-03T11:00:21.035Z,26.09
2018-12-03T11:02:47.647Z,26.17
2018-12-03T11:05:14.006Z,26.14
2018-12-03T11:07:40.753Z,26.11
2018-12-03T11:10:07.176Z,25.94
2018-12-03T11:12:33.581Z,25.67
2018-12-03T11:15:00.040Z,25.43
2018-12-03T11:17:26.509Z,26.18
2018-12-03T11:19:53.958Z,26.54
2018-12-03T11:22:20.503Z,26.73
2018-12-03T11:24:46.921Z,26.09
2018-12-03T11:27:13.272Z,25.57
2018-12-03T11:29:39.602Z,25.81
2018-12-03T11:32:06.121Z,25.43
2018-12-03T11:34:32.467Z,25.97
2018-12-03T11:36:58.798Z,26.33
2018-12-03T11:39:25.179Z,25.15
2018-12-03T11:41:51.519Z,25.54
2018-12-03T11:44:20.026Z,25.76
2018-12-03T11:46:46.432Z,25.54
2018-12-03T11:49:12.771Z,25.83
2018-12-03T11:51:39.110Z,26.44
2018-12-03T11:54:05.544Z,26.38
2018-12-03T11:56:32.056Z,25.99
2018-12-03T11:58:58.391Z,27.09
2018-12-03T12:01:24.758Z,26.01
2018-12-03T12:03:51.310Z,26.53
2018-12-03T12:06:17.704Z,25.63
2018-12-03T12:08:44.121Z,26.83
2018-12-03T12:11:10.458Z,26.29
2018-12-03T12:13:36.918Z,27.12
2018-12-03T12:16:03.265Z,26.48
2018-12-03T12:18:29.662Z,26.83
2018-12-03T12:20:56.089Z,26.72
2018-12-03T12:23:22.513Z,26.86
2018-12-03T12:25:48.856Z,26.92
2018-12-03T12:28:15.291Z,27.66
2018-12-03T12:30:41.623Z,27.60
2018-12-03T12:33:07.955Z,26.51
2018-12-03T12:35:34.304Z,26.56
2018-12-03T12:38:00.693Z,26.40
2018-12-03T12:40:27.166Z,26.30
2018-12-03T12:42:53.507Z,26.28
2018-12-03T12:45:19.897Z,26.22
2018-12-03T12:47:46.380Z,26.58
2018-12-03T12:50:12.780Z,26.51
2018-12-03T12:52:39.151Z,26.14
2018-12-03T12:55:05.561Z,26.26
2018-12-03T12:57:31.940Z,26.15
2018-12-03T12:59:58.439Z,26.60
2018-12-03T13:02:25.005Z,26.44
2018-12-03T13:04:51.521Z,26.19
2018-12-03T13:07:17.901Z,26.41
2018-12-03T13:09:44.293Z,27.00
2018-12-03T13:12:10.629Z,27.19
2018-12-03T13:14:37.006Z,27.49
2018-12-03T13:17:03.454Z,26.72
2018-12-03T13:19:29.794Z,26.52
2018-12-03T13:21:56.174Z,26.20
2018-12-03T13:24:22.561Z,26.09
2018-12-03T13:26:48.965Z,26.57
2018-12-03T13:29:15.378Z,27.93
2018-12-03T13:31:41.747Z,26.93
2018-12-03T13:34:08.139Z,27.19
2018-12-03T13:36:34.573Z,27.27
2018-12-03T13:39:01.005Z,27.31
2018-12-03T13:41:27.525Z,28.23
2018-12-03T13:43:54.013Z,26.76
2018-12-03T13:46:20.345Z,28.79
2018-12-03T13:48:46.732Z,28.45
2018-12-03T13:51:13.212Z,27.68
2018-12-03T13:53:39.733Z,27.51
2018-12-03T13:56:08.353Z,27.86
2018-12-03T13:58:34.775Z,28.69
2018-12-03T14:01:01.195Z,27.48
2018-12-03T14:03:27.537Z,28.02
2018-12-03T14:05:56.364Z,27.47
2018-12-03T14:08:22.726Z,27.54
2018-12-03T14:10:49.075Z,27.50
2018-12-03T14:13:15.598Z,27.70
2018-12-03T14:15:41.976Z,27.73
2018-12-03T14:18:08.337Z,28.21
2018-12-03T14:20:34.702Z,27.64
2018-12-03T14:23:03.208Z,27.29
2018-12-03T14:25:29.681Z,27.18
2018-12-03T14:27:56.028Z,27.37
2018-12-03T14:30:22.474Z,26.76
2018-12-03T14:32:48.920Z,27.37
2018-12-03T14:35:15.430Z,27.40
2018-12-03T14:37:41.787Z,27.25
2018-12-03T14:40:08.156Z,27.68
2018-12-03T14:42:34.628Z,27.44
2018-12-03T14:45:01.035Z,26.94
2018-12-03T14:47:27.401Z,27.17
2018-12-03T14:49:53.822Z,27.15
2018-12-03T14:52:20.260Z,26.86
2018-12-03T14:54:46.588Z,26.84
2018-12-03T14:57:12.991Z,27.25
2018-12-03T14:59:41.539Z,27.39
2018-12-03T15:02:07.935Z,27.16
2018-12-03T15:04:34.320Z,26.84
2018-12-03T15:07:00.874Z,26.65
2018-12-03T15:09:27.303Z,26.55
2018-12-03T15:11:53.659Z,26.37
2018-12-03T15:14:20.016Z,26.55
2018-12-03T15:16:46.538Z,26.78
2018-12-03T15:19:12.900Z,26.74
2018-12-03T15:21:39.263Z,26.84
2018-12-03T15:24:05.698Z,26.54
2018-12-03T15:26:32.378Z,26.85
2018-12-03T15:28:58.806Z,26.79
2018-12-03T15:31:25.159Z,26.48
2018-12-03T15:33:51.531Z,26.47
2018-12-03T15:36:17.890Z,26.75
2018-12-03T15:38:44.239Z,26.81
2018-12-03T15:41:10.577Z,26.68
2018-12-03T15:43:36.906Z,26.71
2018-12-03T15:46:03.287Z,26.63
2018-12-03T15:48:29.701Z,26.44
2018-12-03T15:50:56.080Z,26.63
2018-12-03T15:53:22.382Z,26.48
2018-12-03T15:55:48.742Z,26.59
2018-12-03T15:58:15.129Z,26.58
2018-12-03T16:00:41.606Z,26.61
2018-12-03T16:03:08.062Z,26.89
2018-12-03T16:05:34.369Z,27.12
2018-12-03T16:08:01.857Z,26.78
2018-12-03T16:10:27.098Z,26.87
2018-12-03T16:12:53.460Z,26.73
2018-12-03T16:15:19.871Z,26.88
2018-12-03T16:17:46.191Z,26.60
2018-12-03T16:20:12.497Z,26.31
2018-12-03T16:22:38.907Z,26.51
2018-12-03T16:25:05.303Z,26.33
2018-12-03T16:27:31.586Z,26.49
2018-12-03T16:29:58.064Z,26.43
2018-12-03T16:32:24.480Z,26.50
2018-12-03T16:34:50.801Z,26.57
2018-12-03T16:37:17.211Z,26.31
2018-12-03T16:39:43.555Z,26.25
2018-12-03T16:42:09.888Z,26.46
2018-12-03T16:44:36.251Z,26.19
2018-12-03T16:47:02.576Z,26.05
2018-12-03T16:49:29.036Z,26.41
2018-12-03T16:51:55.376Z,26.53
2018-12-03T16:54:21.711Z,26.60
2018-12-03T16:56:48.059Z,26.67
2018-12-03T16:59:14.425Z,26.71
2018-12-03T17:01:40.770Z,26.74
2018-12-03T17:04:07.175Z,26.70
2018-12-03T17:06:33.515Z,26.56
2018-12-03T17:08:59.844Z,26.61
2018-12-03T17:11:26.225Z,26.49
2018-12-03T17:13:52.608Z,26.47
2018-12-03T17:16:19.076Z,26.55
2018-12-03T17:18:45.412Z,26.60
2018-12-03T17:21:11.767Z,26.42
2018-12-03T17:23:38.120Z,26.45
2018-12-03T17:26:04.494Z,26.58
2018-12-03T17:28:30.830Z,26.60
2018-12-03T17:30:57.197Z,26.31
2018-12-03T17:33:23.570Z,26.51
2018-12-03T17:35:49.976Z,26.18
2018-12-03T17:38:16.321Z,26.77
2018-12-03T17:40:42.697Z,26.63
2018-12-03T17:43:09.051Z,26.78
2018-12-03T17:45:35.384Z,26.63
2018-12-03T17:48:01.748Z,26.57
2018-12-03T17:50:28.179Z,26.22
2018-12-03T17:52:54.528Z,26.67
2018-12-03T17:55:20.861Z,26.34
2018-12-03T17:57:47.251Z,26.54
2018-12-03T18:00:13.652Z,26.54
2018-12-03T18:02:39.990Z,26.39
2018-12-03T18:05:06.401Z,26.84
2018-12-03T18:07:32.775Z,26.91
2018-12-03T18:09:59.169Z,27.19
2018-12-03T18:12:25.502Z,27.26
2018-12-03T18:14:51.833Z,27.40
2018-12-03T18:17:18.213Z,27.45
2018-12-03T18:19:44.552Z,27.46
2018-12-03T18:22:10.972Z,27.40
2018-12-03T18:24:37.237Z,27.28
2018-12-03T18:27:03.639Z,27.22
2018-12-03T18:29:29.956Z,27.09
2018-12-03T18:31:56.376Z,27.08
2018-12-03T18:34:22.764Z,27.02
2018-12-03T18:36:49.089Z,27.15
2018-12-03T18:39:15.422Z,27.18
2018-12-03T18:41:41.765Z,27.21
2018-12-03T18:44:08.107Z,27.18
2018-12-03T18:46:34.439Z,27.17
2018-12-03T18:49:00.858Z,27.10
2018-12-03T18:51:27.200Z,27.11
2018-12-03T18:53:53.544Z,27.06
2018-12-03T18:56:19.994Z,27.05
2018-12-03T18:58:46.354Z,27.04
2018-12-03T19:01:12.718Z,27.02
2018-12-03T19:03:39.170Z,27.04
2018-12-03T19:06:05.475Z,27.01
2018-12-03T19:08:31.828Z,27.08
2018-12-03T19:10:58.182Z,27.10
2018-12-03T19:13:24.589Z,27.18
2018-12-03T19:15:50.935Z,27.13
2018-12-03T19:18:17.334Z,27.05
2018-12-03T19:20:43.666Z,26.97
2018-12-03T19:23:10.097Z,26.98
2018-12-03T19:25:36.441Z,27.10
2018-12-03T19:28:02.776Z,27.18
2018-12-03T19:30:29.177Z,27.17
2018-12-03T19:32:55.545Z,27.25
2018-12-03T19:35:21.887Z,27.23
2018-12-03T19:37:48.224Z,27.15
2018-12-03T19:40:14.564Z,27.12
2018-12-03T19:42:40.961Z,27.20
2018-12-03T19:45:07.298Z,27.20
2018-12-03T19:47:33.629Z,27.18
2018-12-03T19:50:00.028Z,27.37
2018-12-03T19:52:26.433Z,27.34
2018-12-03T19:54:52.809Z,27.41
2018-12-03T19:57:19.187Z,27.47
2018-12-03T19:59:45.582Z,27.47
2018-12-03T20:02:11.929Z,27.43
2018-12-03T20:04:38.261Z,27.40
2018-12-03T20:07:04.592Z,27.38
2018-12-03T20:09:31.006Z,27.41
2018-12-03T20:11:57.309Z,27.54
2018-12-03T20:14:23.633Z,27.64
2018-12-03T20:16:49.963Z,27.59
2018-12-03T20:19:16.287Z,27.69
2018-12-03T20:21:42.661Z,27.73
2018-12-03T20:24:08.952Z,27.64
2018-12-03T20:26:35.360Z,27.70
2018-12-03T20:29:01.747Z,27.70
2018-12-03T20:31:28.087Z,27.72
2018-12-03T20:33:54.510Z,27.76
2018-12-03T20:36:20.841Z,27.77
2018-12-03T20:38:47.234Z,27.79
2018-12-03T20:41:13.578Z,27.87
2018-12-03T20:43:39.915Z,27.92
2018-12-03T20:46:06.248Z,28.01
2018-12-03T20:48:32.597Z,28.02
2018-12-03T20:50:58.935Z,27.95
2018-12-03T20:53:25.296Z,27.84
2018-12-03T20:55:51.636Z,27.89
2018-12-03T20:58:18.012Z,27.76
2018-12-03T21:00:44.343Z,27.75
2018-12-03T21:03:10.719Z,27.89
2018-12-03T21:05:37.111Z,27.91
2018-12-03T21:08:03.431Z,27.98
2018-12-03T21:13:30.590Z,28.21
2018-12-03T21:15:56.970Z,28.33
2018-12-03T21:18:23.331Z,28.38
2018-12-03T21:20:49.655Z,28.54
2018-12-03T21:23:16.068Z,28.81
2018-12-03T21:25:42.453Z,28.92
2018-12-03T21:28:08.785Z,29.00
2018-12-03T21:30:35.124Z,29.07
2018-12-03T21:33:01.510Z,29.18
2018-12-03T21:35:27.996Z,29.18
2018-12-03T21:37:54.340Z,29.23
2018-12-03T21:40:20.739Z,29.27
2018-12-03T21:42:47.174Z,29.27
2018-12-03T21:45:13.580Z,29.39
2018-12-03T21:47:39.912Z,29.43
2018-12-03T21:50:07.278Z,29.54
2018-12-03T21:52:32.631Z,29.66
2018-12-03T21:54:58.965Z,29.67
2018-12-03T21:57:25.292Z,29.72
2018-12-03T21:59:56.739Z,29.71
2018-12-03T22:02:18.014Z,29.69
2018-12-03T22:04:44.310Z,29.76
2018-12-03T22:07:10.735Z,29.87
2018-12-03T22:09:37.090Z,29.95
2018-12-03T22:12:03.413Z,30.03
2018-12-03T22:14:29.762Z,30.09
2018-12-03T22:16:56.156Z,30.15
2018-12-03T22:19:22.486Z,30.09
2018-12-03T22:21:48.915Z,30.09
2018-12-03T22:24:15.259Z,30.08
2018-12-03T22:26:41.647Z,30.09
2018-12-03T22:29:07.983Z,30.11
2018-12-03T22:31:34.319Z,30.22
2018-12-03T22:34:00.743Z,30.27
2018-12-03T22:36:27.035Z,30.38
2018-12-03T22:38:53.365Z,30.51
2018-12-03T22:41:19.705Z,30.51
2018-12-03T22:43:46.091Z,30.52
2018-12-03T22:46:12.388Z,30.53
2018-12-03T22:48:38.709Z,30.52
2018-12-03T22:51:05.039Z,30.55
2018-12-03T22:53:31.369Z,30.54
2018-12-03T22:55:59.372Z,30.57
2018-12-03T22:58:25.721Z,30.69
2018-12-03T23:00:52.100Z,30.75
2018-12-03T23:03:18.446Z,30.74
2018-12-03T23:05:44.785Z,30.85
2018-12-03T23:08:11.122Z,30.85
2018-12-03T23:10:37.500Z,30.90
2018-12-03T23:13:03.834Z,30.75
2018-12-03T23:15:30.220Z,30.74
2018-12-03T23:17:56.532Z,30.71
2018-12-03T23:20:22.863Z,30.72
2018-12-03T23:22:49.196Z,30.85
2018-12-03T23:25:15.524Z,31.01
2018-12-03T23:27:41.863Z,30.94
2018-12-03T23:30:08.254Z,31.01
2018-12-03T23:32:34.581Z,30.96
2018-12-03T23:35:00.913Z,31.16
2018-12-03T23:37:27.343Z,30.95
2018-12-03T23:39:53.772Z,31.17
2018-12-03T23:42:20.145Z,31.13
2018-12-03T23:44:46.471Z,31.17
2018-12-03T23:47:12.787Z,31.20
2018-12-03T23:49:39.153Z,31.27
2018-12-03T23:52:05.499Z,31.05
2018-12-03T23:54:31.824Z,31.20
2018-12-03T23:56:58.171Z,31.21
2018-12-03T23:59:24.498Z,31.39
